createdAt,value
2023-02-04T00:02:03.948Z,103273.16
2023-02-04T00:04:38.111Z,103270.41
2023-02-04T00:07:10.841Z,103278.28
2023-02-04T00:09:43.905Z,103277.81
2023-02-04T00:12:17.025Z,103278.44
2023-02-04T00:14:49.617Z,103276.19
2023-02-04T00:17:22.398Z,103262.31
2023-02-04T00:19:56.629Z,103279.06
2023-02-04T00:22:29.635Z,103281.19
2023-02-04T00:25:02.276Z,103276.94
2023-02-04T00:27:35.052Z,103285.56
2023-02-04T00:30:09.914Z,103278.09
2023-02-04T00:32:44.636Z,103284.69
2023-02-04T00:35:19.638Z,103284.38
2023-02-04T00:37:53.045Z,103283.56
2023-02-04T00:40:26.295Z,103279.53
2023-02-04T00:42:59.169Z,103283.41
2023-02-04T00:45:32.116Z,103280.66
2023-02-04T00:48:05.519Z,103286.16
2023-02-04T00:50:40.727Z,103286.31
2023-02-04T00:53:13.657Z,103283.56
2023-02-04T00:55:46.401Z,103293.28
2023-02-04T00:58:19.309Z,103287.25
2023-02-04T01:00:52.121Z,103292.56
2023-02-04T01:03:25.091Z,103291.94
2023-02-04T01:05:59.172Z,103295.38
2023-02-04T01:08:32.057Z,103301.19
2023-02-04T01:11:05.319Z,103291.66
2023-02-04T01:13:38.401Z,103293.09
2023-02-04T01:16:11.700Z,103299.25
2023-02-04T01:18:44.636Z,103305.66
2023-02-04T01:21:18.782Z,103311.66
2023-02-04T01:23:52.423Z,103317.41
2023-02-04T01:26:25.247Z,103317.78
2023-02-04T01:28:59.764Z,103313.09
2023-02-04T01:31:34.016Z,103318.38
2023-02-04T01:34:08.540Z,103322.63
2023-02-04T01:36:42.596Z,103313.25
2023-02-04T01:39:15.743Z,103318.75
2023-02-04T01:41:48.653Z,103325.53
2023-02-04T01:44:21.447Z,103329.56
2023-02-04T01:46:54.463Z,103322.91
2023-02-04T01:49:27.634Z,103334.84
2023-02-04T01:52:02.991Z,103331.19
2023-02-04T01:54:35.918Z,103338.94
2023-02-04T01:57:14.477Z,103339.75
2023-02-04T01:59:48.956Z,103347.88
2023-02-04T02:02:40.619Z,103341.47
2023-02-04T02:05:17.103Z,103344.75
2023-02-04T02:07:54.211Z,103347.16
2023-02-04T02:10:27.641Z,103352.16
2023-02-04T02:13:00.963Z,103348.41
2023-02-04T02:15:34.046Z,103339.97
2023-02-04T02:18:07.171Z,103346.31
2023-02-04T02:20:43.988Z,103347.28
2023-02-04T02:23:21.912Z,103350.59
2023-02-04T02:25:56.991Z,103351.28
2023-02-04T02:28:29.834Z,103367.63
2023-02-04T02:31:02.675Z,103352.59
2023-02-04T02:33:36.093Z,103364.09
2023-02-04T02:36:10.000Z,103358.59
2023-02-04T02:38:43.033Z,103361.94
2023-02-04T02:41:17.492Z,103368.56
2023-02-04T02:43:50.326Z,103360.16
2023-02-04T02:46:23.266Z,103365.81
2023-02-04T02:48:56.118Z,103366.63
2023-02-04T02:51:29.650Z,103360.31
2023-02-04T02:54:02.633Z,103360.97
2023-02-04T02:56:36.926Z,103363.28
2023-02-04T02:59:17.690Z,103360.97
2023-02-04T03:01:54.574Z,103358.69
2023-02-04T03:04:31.418Z,103355.16
2023-02-04T03:07:04.717Z,103361.28
2023-02-04T03:09:38.456Z,103359.72
2023-02-04T03:12:12.976Z,103347.34
2023-02-04T03:14:45.779Z,103353.03
2023-02-04T03:17:18.623Z,103356.72
2023-02-04T03:19:52.539Z,103355.91
2023-02-04T03:22:25.630Z,103351.72
2023-02-04T03:24:58.758Z,103352.03
2023-02-04T03:27:33.953Z,103361.56
2023-02-04T03:30:08.723Z,103356.59
2023-02-04T03:32:41.748Z,103362.09
2023-02-04T03:35:14.531Z,103357.09
2023-02-04T03:37:47.824Z,103363.63
2023-02-04T03:40:20.898Z,103368.91
2023-02-04T03:42:55.324Z,103363.63
2023-02-04T03:45:32.361Z,103364.44
2023-02-04T03:48:07.929Z,103366.06
2023-02-04T03:50:40.472Z,103370.94
2023-02-04T03:53:13.357Z,103370.53
2023-02-04T03:55:46.030Z,103381.53
2023-02-04T03:58:20.174Z,103384.91
2023-02-04T04:00:53.392Z,103377.66
2023-02-04T04:03:26.397Z,103381.41
2023-02-04T04:05:59.128Z,103383.66
2023-02-04T04:08:31.841Z,103385.41
2023-02-04T04:11:05.237Z,103384.59
2023-02-04T04:13:39.579Z,103386.19
2023-02-04T04:16:12.478Z,103383.78
2023-02-04T04:18:45.373Z,103386.41
2023-02-04T04:21:18.047Z,103388.94
2023-02-04T04:23:51.411Z,103392.41
2023-02-04T04:26:24.303Z,103394.50
2023-02-04T04:28:58.381Z,103399.81
2023-02-04T04:31:31.254Z,103403.38
2023-02-04T04:34:04.305Z,103404.50
2023-02-04T04:36:36.884Z,103412.41
2023-02-04T04:39:09.945Z,103402.50
2023-02-04T04:41:42.833Z,103403.09
2023-02-04T04:44:16.970Z,103404.91
2023-02-04T04:46:49.791Z,103411.53
2023-02-04T04:49:22.808Z,103409.59
2023-02-04T04:51:55.453Z,103406.38
2023-02-04T04:54:28.367Z,103407.97
2023-02-04T04:57:03.401Z,103414.69
2023-02-04T04:59:37.595Z,103422.03
2023-02-04T05:02:10.274Z,103414.47
2023-02-04T05:04:43.073Z,103421.06
2023-02-04T05:07:17.864Z,103412.44
2023-02-04T05:09:51.279Z,103413.09
2023-02-04T05:12:23.996Z,103410.84
2023-02-04T05:14:58.356Z,103418.56
2023-02-04T05:17:31.241Z,103417.44
2023-02-04T05:20:04.008Z,103418.69
2023-02-04T05:22:36.781Z,103411.25
2023-02-04T05:25:10.824Z,103410.44
2023-02-04T05:27:44.121Z,103420.59
2023-02-04T05:30:18.608Z,103423.84
2023-02-04T05:32:51.443Z,103421.81
2023-02-04T05:35:24.572Z,103424.66
2023-02-04T05:37:57.294Z,103429.66
2023-02-04T05:40:31.899Z,103430.97
2023-02-04T05:43:04.925Z,103434.16
2023-02-04T05:45:39.042Z,103430.78
2023-02-04T05:48:11.839Z,103429.25
2023-02-04T05:50:44.596Z,103427.53
2023-02-04T05:53:17.424Z,103422.84
2023-02-04T05:55:50.362Z,103427.53
2023-02-04T05:58:22.991Z,103423.03
2023-02-04T06:00:57.050Z,103418.78
2023-02-04T06:03:30.662Z,103428.66
2023-02-04T06:06:03.451Z,103439.00
2023-02-04T06:08:36.621Z,103445.81
2023-02-04T06:11:09.653Z,103442.38
2023-02-04T06:13:42.629Z,103450.59
2023-02-04T06:16:16.956Z,103460.66
2023-02-04T06:18:49.758Z,103454.97
2023-02-04T06:21:24.357Z,103452.22
2023-02-04T06:23:57.229Z,103458.53
2023-02-04T06:26:30.241Z,103453.44
2023-02-04T06:29:02.889Z,103468.16
2023-02-04T06:31:38.563Z,103473.25
2023-02-04T06:34:11.543Z,103470.72
2023-02-04T06:36:44.182Z,103478.97
2023-02-04T06:39:16.901Z,103472.34
2023-02-04T06:41:49.734Z,103478.16
2023-02-04T06:44:22.441Z,103483.31
2023-02-04T06:46:56.578Z,103483.00
2023-02-04T06:49:29.372Z,103484.44
2023-02-04T06:52:02.047Z,103490.25
2023-02-04T06:54:34.966Z,103490.97
2023-02-04T06:57:07.735Z,103495.59
2023-02-04T06:59:43.133Z,103504.97
2023-02-04T07:02:17.365Z,103502.75
2023-02-04T07:04:50.360Z,103502.75
2023-02-04T07:07:22.939Z,103501.31
2023-02-04T07:09:55.811Z,103502.44
2023-02-04T07:12:29.036Z,103504.38
2023-02-04T07:15:01.970Z,103507.91
2023-02-04T07:17:36.032Z,103506.81
2023-02-04T07:20:10.428Z,103501.00
2023-02-04T07:22:43.490Z,103505.38
2023-02-04T07:25:17.933Z,103504.38
2023-02-04T07:27:50.937Z,103501.09
2023-02-04T07:30:23.734Z,103503.34
2023-02-04T07:32:57.889Z,103507.44
2023-02-04T07:35:30.816Z,103516.56
2023-02-04T07:38:03.560Z,103522.03
2023-02-04T07:40:36.472Z,103522.44
2023-02-04T07:43:09.837Z,103520.00
2023-02-04T07:45:48.646Z,103518.97
2023-02-04T07:48:22.835Z,103524.47
2023-02-04T07:50:55.702Z,103518.41
2023-02-04T07:53:28.435Z,103523.25
2023-02-04T07:56:01.301Z,103525.59
2023-02-04T07:58:34.157Z,103524.69
2023-02-04T08:01:06.813Z,103532.72
2023-02-04T08:03:42.749Z,103541.75
2023-02-04T08:06:15.488Z,103539.50
2023-02-04T08:08:48.360Z,103528.66
2023-02-04T08:11:21.084Z,103538.19
2023-02-04T08:13:54.120Z,103542.16
2023-02-04T08:16:26.770Z,103538.41
2023-02-04T08:19:01.198Z,103545.53
2023-02-04T08:21:33.870Z,103550.31
2023-02-04T08:24:06.986Z,103547.06
2023-02-04T08:26:39.751Z,103554.34
2023-02-04T08:29:13.126Z,103558.44
2023-02-04T08:31:47.669Z,103555.56
2023-02-04T08:34:22.103Z,103555.25
2023-02-04T08:36:54.937Z,103562.19
2023-02-04T08:39:29.926Z,103565.56
2023-02-04T08:42:02.895Z,103573.66
2023-02-04T08:44:35.970Z,103574.47
2023-02-04T08:47:08.834Z,103569.59
2023-02-04T08:49:42.918Z,103574.78
2023-02-04T08:52:15.692Z,103581.22
2023-02-04T08:54:48.566Z,103575.91
2023-02-04T08:57:22.311Z,103575.91
2023-02-04T08:59:55.120Z,103575.09
2023-02-04T09:02:27.902Z,103587.78
2023-02-04T09:05:02.203Z,103582.84
2023-02-04T09:07:35.158Z,103576.72
2023-02-04T09:10:08.027Z,103577.22
2023-02-04T09:12:42.085Z,103580.59
2023-02-04T09:15:14.986Z,103580.78
2023-02-04T09:17:47.542Z,103582.94
2023-02-04T09:20:22.231Z,103571.63
2023-02-04T09:22:59.460Z,103585.84
2023-02-04T09:25:32.316Z,103576.91
2023-02-04T09:28:05.145Z,103583.66
2023-02-04T09:30:38.729Z,103584.03
2023-02-04T09:33:12.837Z,103589.00
2023-02-04T09:35:46.895Z,103595.13
2023-02-04T09:38:19.601Z,103592.28
2023-02-04T09:40:55.510Z,103601.94
2023-02-04T09:43:31.241Z,103605.16
2023-02-04T09:46:04.826Z,103606.38
2023-02-04T09:48:38.662Z,103606.59
2023-02-04T09:51:21.974Z,103605.78
2023-02-04T09:53:57.067Z,103606.91
2023-02-04T09:56:29.854Z,103614.53
2023-02-04T09:59:02.594Z,103621.13
2023-02-04T10:01:35.483Z,103629.28
2023-02-04T10:04:12.641Z,103626.53
2023-02-04T10:06:47.044Z,103634.88
2023-02-04T10:09:20.309Z,103637.53
2023-02-04T10:11:53.157Z,103630.91
2023-02-04T10:14:25.959Z,103639.75
2023-02-04T10:17:00.740Z,103638.34
2023-02-04T10:19:33.580Z,103647.16
2023-02-04T10:22:16.620Z,103648.69
2023-02-04T10:24:49.337Z,103646.25
2023-02-04T10:27:23.170Z,103647.38
2023-02-04T10:30:00.922Z,103640.78
2023-02-04T10:32:34.970Z,103647.38
2023-02-04T10:35:08.134Z,103644.81
2023-02-04T10:37:42.272Z,103644.94
2023-02-04T10:40:28.343Z,103646.25
2023-02-04T10:43:15.616Z,103651.94
2023-02-04T10:45:56.383Z,103653.06
2023-02-04T10:48:31.738Z,103645.63
2023-02-04T10:51:05.050Z,103646.31
2023-02-04T10:53:56.879Z,103647.94
2023-02-04T10:56:29.597Z,103661.69
2023-02-04T10:59:02.557Z,103653.94
2023-02-04T11:01:35.218Z,103650.09
2023-02-04T11:04:11.744Z,103651.19
2023-02-04T11:06:47.466Z,103647.63
2023-02-04T11:09:23.875Z,103647.75
2023-02-04T11:11:59.778Z,103646.31
2023-02-04T11:14:33.874Z,103643.72
2023-02-04T11:17:06.668Z,103647.13
2023-02-04T11:19:40.562Z,103637.13
2023-02-04T11:22:37.474Z,103635.81
2023-02-04T11:25:36.439Z,103629.88
2023-02-04T11:28:15.769Z,103633.44
2023-02-04T11:31:03.916Z,103638.63
2023-02-04T11:33:41.511Z,103634.78
2023-02-04T11:36:15.897Z,103640.75
2023-02-04T11:38:53.955Z,103630.91
2023-02-04T11:41:35.930Z,103634.78
2023-02-04T11:44:11.983Z,103641.91
2023-02-04T11:46:54.654Z,103635.75
2023-02-04T11:49:28.612Z,103639.63
2023-02-04T11:52:08.661Z,103639.63
2023-02-04T11:54:41.741Z,103639.16
2023-02-04T11:57:15.916Z,103637.00
2023-02-04T11:59:48.764Z,103633.81
2023-02-04T12:02:23.473Z,103640.06
2023-02-04T12:04:58.607Z,103639.03
2023-02-04T12:07:31.676Z,103648.19
2023-02-04T12:10:13.325Z,103641.69
2023-02-04T12:12:52.872Z,103652.78
2023-02-04T12:15:36.883Z,103648.91
2023-02-04T12:18:28.167Z,103650.16
2023-02-04T12:21:02.348Z,103648.78
2023-02-04T12:23:35.415Z,103660.44
2023-02-04T12:26:08.672Z,103650.84
2023-02-04T12:28:43.065Z,103652.69
2023-02-04T12:31:16.132Z,103651.22
2023-02-04T12:33:49.163Z,103649.28
2023-02-04T12:36:22.051Z,103655.31
2023-02-04T12:38:54.714Z,103651.06
2023-02-04T12:41:28.389Z,103654.78
2023-02-04T12:44:02.818Z,103647.06
2023-02-04T12:46:35.593Z,103640.94
2023-02-04T12:49:09.722Z,103645.72
2023-02-04T12:51:42.552Z,103642.06
2023-02-04T12:54:15.373Z,103643.78
2023-02-04T12:56:53.384Z,103645.72
2023-02-04T12:59:27.569Z,103636.00
2023-02-04T13:02:00.315Z,103633.53
2023-02-04T13:04:33.171Z,103630.50
2023-02-04T13:07:07.829Z,103629.66
2023-02-04T13:09:40.648Z,103625.50
2023-02-04T13:12:14.269Z,103623.06
2023-02-04T13:14:48.419Z,103619.69
2023-02-04T13:17:21.164Z,103621.28
2023-02-04T13:19:53.887Z,103633.91
2023-02-04T13:22:26.771Z,103624.38
2023-02-04T13:24:59.397Z,103621.78
2023-02-04T13:27:32.662Z,103622.31
2023-02-04T13:30:09.659Z,103618.53
2023-02-04T13:32:43.546Z,103621.06
2023-02-04T13:35:16.338Z,103629.00
2023-02-04T13:37:49.060Z,103627.38
2023-02-04T13:40:21.922Z,103620.25
2023-02-04T13:42:54.589Z,103622.53
2023-02-04T13:45:30.037Z,103618.16
2023-02-04T13:48:03.109Z,103612.34
2023-02-04T13:50:35.800Z,103612.56
2023-02-04T13:53:10.473Z,103616.66
2023-02-04T13:55:43.292Z,103610.50
2023-02-04T13:58:16.018Z,103612.22
2023-02-04T14:00:50.428Z,103611.63
2023-02-04T14:03:23.539Z,103620.03
2023-02-04T14:05:56.600Z,103621.19
2023-02-04T14:08:29.458Z,103628.78
2023-02-04T14:11:02.655Z,103622.16
2023-02-04T14:13:35.757Z,103624.41
2023-02-04T14:16:10.532Z,103627.88
2023-02-04T14:18:43.374Z,103637.13
2023-02-04T14:21:16.350Z,103631.91
2023-02-04T14:23:48.888Z,103634.19
2023-02-04T14:26:21.726Z,103633.03
2023-02-04T14:28:54.473Z,103633.09
2023-02-04T14:31:28.551Z,103631.66
2023-02-04T14:34:01.357Z,103638.78
2023-02-04T14:36:34.336Z,103631.84
2023-02-04T14:39:07.001Z,103627.78
2023-02-04T14:41:39.774Z,103628.91
2023-02-04T14:44:12.587Z,103629.41
2023-02-04T14:46:48.218Z,103626.78
2023-02-04T14:49:21.089Z,103630.06
2023-02-04T14:51:53.929Z,103631.16
2023-02-04T14:54:26.970Z,103641.06
2023-02-04T14:56:59.890Z,103632.28
2023-02-04T14:59:32.669Z,103621.28
2023-02-04T15:02:07.507Z,103622.25
2023-02-04T15:04:40.335Z,103622.16
2023-02-04T15:07:13.791Z,103631.44
2023-02-04T15:09:46.562Z,103634.53
2023-02-04T15:12:19.335Z,103633.72
2023-02-04T15:14:52.054Z,103639.56
2023-02-04T15:18:00.778Z,103631.91
2023-02-04T15:20:36.163Z,103628.19
2023-02-04T15:23:12.895Z,103633.38
2023-02-04T15:25:47.144Z,103634.81
2023-02-04T15:28:21.921Z,103642.75
2023-02-04T15:30:54.809Z,103634.97
2023-02-04T15:33:29.114Z,103643.56
2023-02-04T15:36:01.977Z,103647.88
2023-02-04T15:38:34.995Z,103643.19
2023-02-04T15:41:07.813Z,103651.94
2023-02-04T15:43:40.809Z,103653.19
2023-02-04T15:46:13.553Z,103656.44
2023-02-04T15:48:48.915Z,103653.88
2023-02-04T15:51:21.845Z,103654.38
2023-02-04T15:53:54.500Z,103659.06
2023-02-04T15:56:27.303Z,103650.81
2023-02-04T15:59:02.257Z,103652.56
2023-02-04T16:01:37.581Z,103657.44
2023-02-04T16:04:11.779Z,103662.75
2023-02-04T16:06:53.463Z,103656.25
2023-02-04T16:09:30.791Z,103668.88
2023-02-04T16:12:09.799Z,103671.81
2023-02-04T16:14:45.206Z,103667.69
2023-02-04T16:17:19.127Z,103677.56
2023-02-04T16:19:53.332Z,103673.72
2023-02-04T16:22:29.439Z,103675.63
2023-02-04T16:25:02.905Z,103678.09
2023-02-04T16:27:35.960Z,103672.69
2023-02-04T16:30:10.154Z,103676.88
2023-02-04T16:32:43.117Z,103683.19
2023-02-04T16:35:17.280Z,103684.44
2023-02-04T16:37:50.342Z,103683.31
2023-02-04T16:40:23.415Z,103686.69
2023-02-04T16:42:56.183Z,103682.44
2023-02-04T16:45:29.291Z,103682.00
2023-02-04T16:48:02.351Z,103685.19
2023-02-04T16:50:36.778Z,103686.69
2023-02-04T16:53:14.931Z,103689.06
2023-02-04T16:55:49.196Z,103688.09
2023-02-04T16:58:25.540Z,103679.56
2023-02-04T17:00:59.872Z,103682.31
2023-02-04T17:03:33.035Z,103691.59
2023-02-04T17:06:07.810Z,103686.50
2023-02-04T17:08:40.901Z,103696.69
2023-02-04T17:11:32.546Z,103687.59
2023-02-04T17:14:08.624Z,103684.97
2023-02-04T17:16:42.650Z,103682.03
2023-02-04T17:19:17.957Z,103687.53
2023-02-04T17:21:56.068Z,103689.56
2023-02-04T17:24:29.023Z,103696.59
2023-02-04T17:27:03.350Z,103699.34
2023-02-04T17:29:36.673Z,103692.63
2023-02-04T17:32:12.394Z,103699.56
2023-02-04T17:34:45.427Z,103700.16
2023-02-04T17:37:19.560Z,103702.09
2023-02-04T17:39:52.450Z,103699.34
2023-02-04T17:42:28.225Z,103712.78
2023-02-04T17:45:03.479Z,103712.19
2023-02-04T17:47:39.781Z,103708.09
2023-02-04T17:50:13.046Z,103717.47
2023-02-04T17:52:47.439Z,103714.22
2023-02-04T17:55:24.378Z,103713.41
2023-02-04T17:58:00.580Z,103712.59
2023-02-04T18:00:35.017Z,103716.25
2023-02-04T18:03:16.733Z,103714.03
2023-02-04T18:05:52.192Z,103717.06
2023-02-04T18:08:36.208Z,103707.59
2023-02-04T18:11:16.667Z,103710.03
2023-02-04T18:13:50.135Z,103713.63
2023-02-04T18:16:30.306Z,103718.41
2023-02-04T18:19:18.289Z,103720.75
2023-02-04T18:21:54.495Z,103717.69
2023-02-04T18:24:36.058Z,103720.25
2023-02-04T18:27:18.031Z,103723.91
2023-02-04T18:29:53.739Z,103725.84
2023-02-04T18:32:33.446Z,103723.59
2023-02-04T18:35:35.677Z,103726.66
2023-02-04T18:38:25.785Z,103734.88
2023-02-04T18:41:13.985Z,103730.59
2023-02-04T18:43:51.158Z,103734.78
2023-02-04T18:46:29.289Z,103739.47
2023-02-04T18:49:18.578Z,103734.38
2023-02-04T18:51:53.588Z,103732.44
2023-02-04T18:54:34.997Z,103740.16
2023-02-04T18:57:33.932Z,103742.28
2023-02-04T19:00:24.104Z,103736.19
2023-02-04T19:03:01.320Z,103746.16
2023-02-04T19:05:37.860Z,103745.75
2023-02-04T19:08:30.455Z,103746.75
2023-02-04T19:11:03.543Z,103752.25
2023-02-04T19:13:42.500Z,103751.00
2023-02-04T19:16:24.166Z,103751.22
2023-02-04T19:18:58.070Z,103750.81
2023-02-04T19:21:32.603Z,103749.28
2023-02-04T19:24:18.017Z,103750.31
2023-02-04T19:26:55.663Z,103749.19
2023-02-04T19:29:42.033Z,103746.94
2023-02-04T19:32:40.977Z,103737.16
2023-02-04T19:35:19.259Z,103734.94
2023-02-04T19:37:57.630Z,103733.59
2023-02-04T19:40:36.089Z,103742.66
2023-02-04T19:43:22.647Z,103734.72
2023-02-04T19:45:57.478Z,103730.66
2023-02-04T19:48:37.476Z,103735.34
2023-02-04T19:51:26.905Z,103733.31
2023-02-04T19:54:11.561Z,103727.38
2023-02-04T19:56:47.187Z,103728.19
2023-02-04T19:59:26.995Z,103730.75
2023-02-04T20:02:24.850Z,103728.63
2023-02-04T20:04:57.940Z,103722.72
2023-02-04T20:07:39.177Z,103728.00
2023-02-04T20:10:24.839Z,103734.69
2023-02-04T20:13:07.164Z,103737.66
2023-02-04T20:15:43.596Z,103742.63
2023-02-04T20:18:24.632Z,103745.47
2023-02-04T20:20:57.784Z,103747.28
2023-02-04T20:23:33.856Z,103756.44
2023-02-04T20:26:09.605Z,103752.28
2023-02-04T20:28:45.870Z,103756.56
2023-02-04T20:31:29.905Z,103748.72
2023-02-04T20:34:16.242Z,103753.41
2023-02-04T20:36:50.220Z,103739.59
2023-02-04T20:39:38.427Z,103738.06
2023-02-04T20:42:26.347Z,103733.16
2023-02-04T20:45:18.334Z,103727.28
2023-02-04T20:47:54.290Z,103718.16
2023-02-04T20:50:42.939Z,103716.91
2023-02-04T20:53:28.225Z,103721.28
2023-02-04T20:56:04.804Z,103721.03
2023-02-04T20:58:39.869Z,103717.78
2023-02-04T21:01:27.574Z,103723.22
2023-02-04T21:04:02.729Z,103720.47
2023-02-04T21:06:37.480Z,103718.03
2023-02-04T21:09:22.149Z,103722.41
2023-02-04T21:11:57.054Z,103726.25
2023-02-04T21:14:32.177Z,103730.09
2023-02-04T21:17:05.348Z,103727.56
2023-02-04T21:19:38.590Z,103734.19
2023-02-04T21:22:13.336Z,103734.91
2023-02-04T21:24:46.939Z,103733.00
2023-02-04T21:27:22.099Z,103737.44
2023-02-04T21:29:55.126Z,103734.69
2023-02-04T21:32:27.963Z,103745.59
2023-02-04T21:35:00.867Z,103747.28
2023-02-04T21:37:35.024Z,103749.53
2023-02-04T21:40:09.043Z,103742.63
2023-02-04T21:42:41.795Z,103745.66
2023-02-04T21:45:14.768Z,103750.56
2023-02-04T21:47:48.680Z,103747.28
2023-02-04T21:50:22.998Z,103744.56
2023-02-04T21:52:57.794Z,103747.59
2023-02-04T21:55:31.140Z,103744.84
2023-02-04T21:58:04.388Z,103740.69
2023-02-04T22:00:37.328Z,103738.06
2023-02-04T22:03:15.678Z,103745.47
2023-02-04T22:05:48.756Z,103756.84
2023-02-04T22:08:23.178Z,103753.97
2023-02-04T22:10:57.225Z,103757.84
2023-02-04T22:13:47.874Z,103761.50
2023-02-04T22:16:20.926Z,103767.50
2023-02-04T22:18:53.960Z,103766.63
2023-02-04T22:21:26.953Z,103764.53
2023-02-04T22:24:01.183Z,103753.28
2023-02-04T22:26:35.433Z,103764.03
2023-02-04T22:29:08.340Z,103767.19
2023-02-04T22:31:41.070Z,103756.22
2023-02-04T22:34:14.137Z,103757.84
2023-02-04T22:36:47.359Z,103755.09
2023-02-04T22:39:22.423Z,103750.53
2023-02-04T22:42:04.543Z,103743.69
2023-02-04T22:44:37.365Z,103735.47
2023-02-04T22:47:10.418Z,103721.16
2023-02-04T22:49:43.412Z,103721.66
2023-02-04T22:52:17.944Z,103718.84
2023-02-04T22:54:52.703Z,103718.41
2023-02-04T22:57:25.516Z,103719.00
2023-02-04T23:00:00.525Z,103720.63
2023-02-04T23:02:33.581Z,103723.09
2023-02-04T23:05:08.960Z,103719.22
2023-02-04T23:07:41.839Z,103708.63
2023-02-04T23:10:16.354Z,103713.00
2023-02-04T23:12:49.649Z,103707.59
2023-02-04T23:15:22.973Z,103704.25
2023-02-04T23:17:55.949Z,103708.31
2023-02-04T23:20:28.732Z,103705.59
2023-02-04T23:23:01.931Z,103702.16
2023-02-04T23:25:36.828Z,103705.81
2023-02-04T23:28:09.888Z,103709.66
2023-02-04T23:30:42.555Z,103702.53
2023-02-04T23:33:15.288Z,103690.97
2023-02-04T23:35:48.101Z,103684.94
2023-02-04T23:38:21.087Z,103678.13
2023-02-04T23:40:57.101Z,103672.88
2023-02-04T23:43:30.191Z,103680.00
2023-02-04T23:46:03.215Z,103695.94
2023-02-04T23:48:36.149Z,103708.03
2023-02-04T23:51:08.930Z,103694.91
2023-02-04T23:53:41.840Z,103679.34
2023-02-04T23:56:15.937Z,103685.75
2023-02-04T23:58:49.049Z,103678.03
